sensor_id;sensor_type;location;lat;lon;timestamp;pressure;altitude;pressure_sealevel;temperature;humidity
54556;BME280;57291;37.520;15.106;2022-10-19T00:01:16;101830.06;;;18.50;69.84
54556;BME280;57291;37.520;15.106;2022-10-19T00:03:45;101822.13;;;18.49;69.83
54556;BME280;57291;37.520;15.106;2022-10-19T00:06:23;101822.44;;;18.47;69.51
54556;BME280;57291;37.520;15.106;2022-10-19T00:08:56;101819.38;;;18.49;68.37
54556;BME280;57291;37.520;15.106;2022-10-19T00:11:25;101818.56;;;18.48;68.56
54556;BME280;57291;37.520;15.106;2022-10-19T00:13:53;101815.81;;;18.48;68.59
54556;BME280;57291;37.520;15.106;2022-10-19T00:16:22;101821.16;;;18.45;68.75
54556;BME280;57291;37.520;15.106;2022-10-19T00:18:50;101809.16;;;18.41;68.67
54556;BME280;57291;37.520;15.106;2022-10-19T00:21:18;101815.66;;;18.36;68.86
54556;BME280;57291;37.520;15.106;2022-10-19T00:23:45;101819.03;;;18.33;68.87
54556;BME280;57291;37.520;15.106;2022-10-19T00:26:13;101807.03;;;18.29;69.19
54556;BME280;57291;37.520;15.106;2022-10-19T00:28:41;101805.75;;;18.26;69.12
54556;BME280;57291;37.520;15.106;2022-10-19T00:31:11;101807.19;;;18.24;68.97
54556;BME280;57291;37.520;15.106;2022-10-19T00:33:39;101806.69;;;18.22;69.20
54556;BME280;57291;37.520;15.106;2022-10-19T00:36:18;101801.38;;;18.25;68.59
54556;BME280;57291;37.520;15.106;2022-10-19T00:38:46;101791.16;;;18.26;68.71
54556;BME280;57291;37.520;15.106;2022-10-19T00:41:15;101809.63;;;18.25;68.37
54556;BME280;57291;37.520;15.106;2022-10-19T00:43:55;101791.00;;;18.22;68.83
54556;BME280;57291;37.520;15.106;2022-10-19T00:46:23;101782.56;;;18.19;69.05
54556;BME280;57291;37.520;15.106;2022-10-19T00:48:54;101791.16;;;18.17;69.39
54556;BME280;57291;37.520;15.106;2022-10-19T00:51:23;101794.72;;;18.18;69.49
54556;BME280;57291;37.520;15.106;2022-10-19T00:53:52;101794.22;;;18.16;69.98
54556;BME280;57291;37.520;15.106;2022-10-19T00:56:19;101789.53;;;18.16;69.57
54556;BME280;57291;37.520;15.106;2022-10-19T00:58:46;101792.28;;;18.16;69.77
54556;BME280;57291;37.520;15.106;2022-10-19T01:01:16;101783.22;;;18.16;69.92
54556;BME280;57291;37.520;15.106;2022-10-19T01:03:45;101787.91;;;18.15;69.96
54556;BME280;57291;37.520;15.106;2022-10-19T01:06:13;101785.66;;;18.17;70.45
54556;BME280;57291;37.520;15.106;2022-10-19T01:08:44;101780.16;;;18.17;70.49
54556;BME280;57291;37.520;15.106;2022-10-19T01:20:06;101775.94;;;18.11;70.47
54556;BME280;57291;37.520;15.106;2022-10-19T01:23:06;101775.78;;;18.08;70.85
54556;BME280;57291;37.520;15.106;2022-10-19T01:31:46;101764.78;;;18.08;70.91
54556;BME280;57291;37.520;15.106;2022-10-19T01:37:09;101754.75;;;18.12;70.13
54556;BME280;57291;37.520;15.106;2022-10-19T01:40:13;101758.00;;;18.14;70.20
54556;BME280;57291;37.520;15.106;2022-10-19T01:43:01;101750.03;;;18.12;69.75
54556;BME280;57291;37.520;15.106;2022-10-19T01:48:11;101748.41;;;18.02;69.95
54556;BME280;57291;37.520;15.106;2022-10-19T01:53:10;101741.13;;;17.98;70.51
54556;BME280;57291;37.520;15.106;2022-10-19T01:55:41;101739.81;;;17.95;70.19
54556;BME280;57291;37.520;15.106;2022-10-19T01:58:12;101734.97;;;17.92;70.71
54556;BME280;57291;37.520;15.106;2022-10-19T02:00:44;101736.41;;;17.90;70.43
54556;BME280;57291;37.520;15.106;2022-10-19T02:03:13;101733.50;;;17.86;70.71
54556;BME280;57291;37.520;15.106;2022-10-19T02:05:42;101735.25;;;17.82;70.19
54556;BME280;57291;37.520;15.106;2022-10-19T02:08:14;101728.47;;;17.79;71.13
54556;BME280;57291;37.520;15.106;2022-10-19T02:10:44;101726.03;;;17.78;70.70
54556;BME280;57291;37.520;15.106;2022-10-19T02:13:13;101717.00;;;17.77;70.80
54556;BME280;57291;37.520;15.106;2022-10-19T02:15:43;101721.16;;;17.75;70.27
54556;BME280;57291;37.520;15.106;2022-10-19T02:18:14;101713.03;;;17.70;70.08
54556;BME280;57291;37.520;15.106;2022-10-19T02:20:43;101716.13;;;17.68;70.60
54556;BME280;57291;37.520;15.106;2022-10-19T02:23:12;101710.91;;;17.67;70.06
54556;BME280;57291;37.520;15.106;2022-10-19T02:25:42;101716.41;;;17.67;69.97
54556;BME280;57291;37.520;15.106;2022-10-19T02:28:09;101719.16;;;17.67;69.69
54556;BME280;57291;37.520;15.106;2022-10-19T02:30:37;101713.19;;;17.65;69.70
54556;BME280;57291;37.520;15.106;2022-10-19T02:33:04;101717.56;;;17.66;69.66
54556;BME280;57291;37.520;15.106;2022-10-19T02:35:31;101707.69;;;17.65;69.45
54556;BME280;57291;37.520;15.106;2022-10-19T02:38:00;101707.69;;;17.65;69.73
54556;BME280;57291;37.520;15.106;2022-10-19T02:40:31;101707.19;;;17.63;69.63
54556;BME280;57291;37.520;15.106;2022-10-19T02:43:04;101711.91;;;17.62;69.35
54556;BME280;57291;37.520;15.106;2022-10-19T02:45:42;101711.09;;;17.62;69.56
54556;BME280;57291;37.520;15.106;2022-10-19T02:48:17;101718.53;;;17.61;69.54
54556;BME280;57291;37.520;15.106;2022-10-19T02:50:46;101703.47;;;17.58;69.52
54556;BME280;57291;37.520;15.106;2022-10-19T02:53:17;101713.97;;;17.56;69.51
54556;BME280;57291;37.520;15.106;2022-10-19T02:55:47;101715.59;;;17.57;68.94
54556;BME280;57291;37.520;15.106;2022-10-19T02:58:15;101710.59;;;17.59;68.78
54556;BME280;57291;37.520;15.106;2022-10-19T03:00:42;101712.03;;;17.57;68.66
54556;BME280;57291;37.520;15.106;2022-10-19T03:03:09;101720.28;;;17.57;68.77
54556;BME280;57291;37.520;15.106;2022-10-19T03:05:36;101716.25;;;17.54;68.71
54556;BME280;57291;37.520;15.106;2022-10-19T03:08:03;101717.34;;;17.53;68.66
54556;BME280;57291;37.520;15.106;2022-10-19T03:10:30;101714.13;;;17.51;68.45
54556;BME280;57291;37.520;15.106;2022-10-19T03:12:57;101714.94;;;17.52;68.35
54556;BME280;57291;37.520;15.106;2022-10-19T03:15:24;101720.72;;;17.50;68.35
54556;BME280;57291;37.520;15.106;2022-10-19T03:17:54;101711.50;;;17.46;68.80
54556;BME280;57291;37.520;15.106;2022-10-19T03:20:22;101709.91;;;17.45;68.52
54556;BME280;57291;37.520;15.106;2022-10-19T03:22:50;101704.41;;;17.45;68.49
54556;BME280;57291;37.520;15.106;2022-10-19T03:25:22;101700.34;;;17.43;68.75
54556;BME280;57291;37.520;15.106;2022-10-19T03:27:51;101706.97;;;17.42;68.51
54556;BME280;57291;37.520;15.106;2022-10-19T03:30:18;101714.41;;;17.41;67.83
54556;BME280;57291;37.520;15.106;2022-10-19T03:32:46;101711.50;;;17.38;67.60
54556;BME280;57291;37.520;15.106;2022-10-19T03:35:13;101711.50;;;17.38;67.36
54556;BME280;57291;37.520;15.106;2022-10-19T03:37:40;101716.34;;;17.41;66.98
54556;BME280;57291;37.520;15.106;2022-10-19T03:40:07;101705.38;;;17.41;66.46
54556;BME280;57291;37.520;15.106;2022-10-19T03:42:34;101713.63;;;17.41;66.23
54556;BME280;57291;37.520;15.106;2022-10-19T03:45:03;101711.16;;;17.39;65.52
54556;BME280;57291;37.520;15.106;2022-10-19T03:47:30;101710.66;;;17.37;65.46
54556;BME280;57291;37.520;15.106;2022-10-19T03:49:57;101715.69;;;17.35;65.64
54556;BME280;57291;37.520;15.106;2022-10-19T03:52:24;101701.44;;;17.33;65.66
54556;BME280;57291;37.520;15.106;2022-10-19T03:54:51;101709.22;;;17.31;65.42
54556;BME280;57291;37.520;15.106;2022-10-19T03:57:18;101707.56;;;17.30;65.68
54556;BME280;57291;37.520;15.106;2022-10-19T03:59:45;101709.84;;;17.28;65.83
54556;BME280;57291;37.520;15.106;2022-10-19T04:02:12;101715.34;;;17.28;65.88
54556;BME280;57291;37.520;15.106;2022-10-19T04:04:39;101714.03;;;17.25;65.73
54556;BME280;57291;37.520;15.106;2022-10-19T04:07:06;101715.34;;;17.28;65.82
54556;BME280;57291;37.520;15.106;2022-10-19T04:09:33;101714.19;;;17.29;66.12
54556;BME280;57291;37.520;15.106;2022-10-19T04:12:00;101719.69;;;17.29;66.00
54556;BME280;57291;37.520;15.106;2022-10-19T04:14:27;101709.50;;;17.29;65.65
54556;BME280;57291;37.520;15.106;2022-10-19T04:17:01;101705.97;;;17.29;65.95
54556;BME280;57291;37.520;15.106;2022-10-19T04:19:29;101702.06;;;17.30;66.16
54556;BME280;57291;37.520;15.106;2022-10-19T04:21:56;101697.72;;;17.29;66.19
54556;BME280;57291;37.520;15.106;2022-10-19T04:24:23;101698.22;;;17.31;66.49
54556;BME280;57291;37.520;15.106;2022-10-19T04:26:53;101696.28;;;17.31;66.42
54556;BME280;57291;37.520;15.106;2022-10-19T04:29:22;101702.06;;;17.30;66.54
54556;BME280;57291;37.520;15.106;2022-10-19T04:31:55;101700.13;;;17.30;67.25
54556;BME280;57291;37.520;15.106;2022-10-19T04:34:22;101695.78;;;17.29;67.55
54556;BME280;57291;37.520;15.106;2022-10-19T04:36:50;101701.78;;;17.31;67.48
54556;BME280;57291;37.520;15.106;2022-10-19T04:39:18;101695.47;;;17.31;67.51
54556;BME280;57291;37.520;15.106;2022-10-19T04:41:45;101696.56;;;17.30;67.78
54556;BME280;57291;37.520;15.106;2022-10-19T04:44:12;101689.13;;;17.30;67.79
54556;BME280;57291;37.520;15.106;2022-10-19T04:46:39;101685.13;;;17.28;68.12
54556;BME280;57291;37.520;15.106;2022-10-19T04:49:06;101684.59;;;17.26;67.99
54556;BME280;57291;37.520;15.106;2022-10-19T04:51:33;101672.00;;;17.25;68.00
54556;BME280;57291;37.520;15.106;2022-10-19T04:54:02;101676.69;;;17.24;68.18
54556;BME280;57291;37.520;15.106;2022-10-19T04:56:29;101679.75;;;17.23;68.59
54556;BME280;57291;37.520;15.106;2022-10-19T04:58:58;101674.75;;;17.25;68.51
54556;BME280;57291;37.520;15.106;2022-10-19T05:01:27;101679.13;;;17.26;68.79
54556;BME280;57291;37.520;15.106;2022-10-19T05:03:57;101671.69;;;17.26;68.68
54556;BME280;57291;37.520;15.106;2022-10-19T05:06:25;101678.31;;;17.25;68.29
54556;BME280;57291;37.520;15.106;2022-10-19T05:08:52;101670.38;;;17.24;68.31
54556;BME280;57291;37.520;15.106;2022-10-19T05:11:20;101670.38;;;17.24;67.94
54556;BME280;57291;37.520;15.106;2022-10-19T05:13:47;101675.06;;;17.23;67.82
54556;BME280;57291;37.520;15.106;2022-10-19T05:16:17;101663.94;;;17.28;67.55
54556;BME280;57291;37.520;15.106;2022-10-19T05:18:52;101672.81;;;17.34;67.60
54556;BME280;57291;37.520;15.106;2022-10-19T05:21:22;101684.84;;;17.47;67.41
54556;BME280;57291;37.520;15.106;2022-10-19T05:23:53;101682.47;;;17.63;66.75
54556;BME280;57291;37.520;15.106;2022-10-19T05:26:23;101675.09;;;17.89;66.81
54556;BME280;57291;37.520;15.106;2022-10-19T05:28:53;101670.28;;;18.21;65.43
54556;BME280;57291;37.520;15.106;2022-10-19T05:31:27;101671.53;;;18.58;63.84
54556;BME280;57291;37.520;15.106;2022-10-19T05:33:55;101667.72;;;18.97;63.05
54556;BME280;57291;37.520;15.106;2022-10-19T05:36:43;101678.72;;;19.44;62.34
54556;BME280;57291;37.520;15.106;2022-10-19T05:39:15;101670.88;;;20.06;61.39
54556;BME280;57291;37.520;15.106;2022-10-19T05:41:43;101672.19;;;20.63;60.00
54556;BME280;57291;37.520;15.106;2022-10-19T05:44:16;101671.47;;;21.11;57.15
54556;BME280;57291;37.520;15.106;2022-10-19T05:46:43;101671.50;;;21.60;56.26
54556;BME280;57291;37.520;15.106;2022-10-19T05:49:11;101669.34;;;22.18;54.17
54556;BME280;57291;37.520;15.106;2022-10-19T05:51:39;101671.06;;;22.51;52.38
54556;BME280;57291;37.520;15.106;2022-10-19T05:54:08;101669.94;;;22.84;52.05
54556;BME280;57291;37.520;15.106;2022-10-19T05:56:35;101665.50;;;23.27;51.21
54556;BME280;57291;37.520;15.106;2022-10-19T05:59:04;101667.19;;;23.47;47.53
54556;BME280;57291;37.520;15.106;2022-10-19T06:01:33;101674.88;;;23.06;48.19
54556;BME280;57291;37.520;15.106;2022-10-19T06:04:01;101676.84;;;23.37;48.53
54556;BME280;57291;37.520;15.106;2022-10-19T06:06:29;101681.91;;;23.83;47.84
54556;BME280;57291;37.520;15.106;2022-10-19T06:08:57;101679.97;;;24.22;46.22
54556;BME280;57291;37.520;15.106;2022-10-19T06:11:36;101684.13;;;24.32;45.29
54556;BME280;57291;37.520;15.106;2022-10-19T06:14:11;101683.28;;;24.70;44.69
54556;BME280;57291;37.520;15.106;2022-10-19T06:16:39;101691.41;;;24.79;43.88
54556;BME280;57291;37.520;15.106;2022-10-19T06:19:06;101685.44;;;24.57;44.27
54556;BME280;57291;37.520;15.106;2022-10-19T06:21:33;101691.16;;;24.26;44.60
54556;BME280;57291;37.520;15.106;2022-10-19T06:24:02;101688.78;;;24.08;45.79
54556;BME280;57291;37.520;15.106;2022-10-19T06:26:31;101687.56;;;24.45;45.70
54556;BME280;57291;37.520;15.106;2022-10-19T06:28:59;101688.63;;;24.79;44.17
54556;BME280;57291;37.520;15.106;2022-10-19T06:31:34;101691.41;;;25.02;42.85
54556;BME280;57291;37.520;15.106;2022-10-19T06:34:02;101695.84;;;25.07;42.96
54556;BME280;57291;37.520;15.106;2022-10-19T06:36:30;101685.81;;;25.21;43.30
54556;BME280;57291;37.520;15.106;2022-10-19T06:38:58;101691.41;;;25.48;41.74
54556;BME280;57291;37.520;15.106;2022-10-19T06:41:28;101687.47;;;25.26;42.31
54556;BME280;57291;37.520;15.106;2022-10-19T06:44:01;101696.09;;;25.17;42.56
54556;BME280;57291;37.520;15.106;2022-10-19T06:46:28;101694.41;;;25.13;42.91
54556;BME280;57291;37.520;15.106;2022-10-19T06:48:57;101694.56;;;25.23;42.43
54556;BME280;57291;37.520;15.106;2022-10-19T06:51:25;101696.16;;;25.21;43.05
54556;BME280;57291;37.520;15.106;2022-10-19T06:53:53;101702.22;;;25.30;42.10
54556;BME280;57291;37.520;15.106;2022-10-19T06:56:24;101700.81;;;25.17;42.82
54556;BME280;57291;37.520;15.106;2022-10-19T06:58:52;101704.53;;;25.01;42.39
54556;BME280;57291;37.520;15.106;2022-10-19T07:01:19;101705.47;;;24.67;43.09
54556;BME280;57291;37.520;15.106;2022-10-19T07:03:46;101700.97;;;24.59;43.72
54556;BME280;57291;37.520;15.106;2022-10-19T07:06:13;101699.69;;;24.75;43.35
54556;BME280;57291;37.520;15.106;2022-10-19T07:08:41;101699.69;;;24.98;43.30
54556;BME280;57291;37.520;15.106;2022-10-19T07:11:11;101697.09;;;25.32;42.00
54556;BME280;57291;37.520;15.106;2022-10-19T07:13:38;101698.72;;;25.33;41.80
54556;BME280;57291;37.520;15.106;2022-10-19T07:16:08;101699.34;;;25.23;41.66
54556;BME280;57291;37.520;15.106;2022-10-19T07:18:45;101704.72;;;25.12;41.66
54556;BME280;57291;37.520;15.106;2022-10-19T07:21:14;101708.25;;;24.67;42.72
54556;BME280;57291;37.520;15.106;2022-10-19T07:23:44;101701.84;;;24.43;43.46
54556;BME280;57291;37.520;15.106;2022-10-19T07:26:15;101707.38;;;24.24;44.02
54556;BME280;57291;37.520;15.106;2022-10-19T07:28:45;101706.84;;;24.18;43.71
54556;BME280;57291;37.520;15.106;2022-10-19T07:31:15;101706.34;;;24.13;44.25
54556;BME280;57291;37.520;15.106;2022-10-19T07:33:43;101707.56;;;23.96;44.53
54556;BME280;57291;37.520;15.106;2022-10-19T07:36:11;101704.75;;;23.60;45.96
54556;BME280;57291;37.520;15.106;2022-10-19T07:38:39;101701.09;;;23.56;46.45
54556;BME280;57291;37.520;15.106;2022-10-19T07:41:12;101702.97;;;23.52;46.63
54556;BME280;57291;37.520;15.106;2022-10-19T07:43:42;101697.88;;;23.54;46.45
54556;BME280;57291;37.520;15.106;2022-10-19T07:46:14;101702.97;;;23.52;46.66
54556;BME280;57291;37.520;15.106;2022-10-19T07:48:43;101693.72;;;23.64;46.20
54556;BME280;57291;37.520;15.106;2022-10-19T07:51:12;101689.44;;;23.67;45.35
54556;BME280;57291;37.520;15.106;2022-10-19T07:53:41;101693.28;;;23.78;46.21
54556;BME280;57291;37.520;15.106;2022-10-19T07:56:23;101691.38;;;23.82;45.31
54556;BME280;57291;37.520;15.106;2022-10-19T07:58:52;101695.94;;;23.90;45.15
54556;BME280;57291;37.520;15.106;2022-10-19T08:01:24;101696.09;;;23.97;45.70
54556;BME280;57291;37.520;15.106;2022-10-19T08:03:53;101689.13;;;23.87;46.02
54556;BME280;57291;37.520;15.106;2022-10-19T08:06:51;101698.06;;;23.97;45.81
54556;BME280;57291;37.520;15.106;2022-10-19T08:09:18;101693.19;;;24.09;45.64
54556;BME280;57291;37.520;15.106;2022-10-19T08:12:05;101690.41;;;24.09;45.26
54556;BME280;57291;37.520;15.106;2022-10-19T08:14:32;101685.34;;;23.96;46.84
54556;BME280;57291;37.520;15.106;2022-10-19T08:17:00;101678.78;;;24.04;46.18
54556;BME280;57291;37.520;15.106;2022-10-19T08:19:27;101686.84;;;24.09;45.87
54556;BME280;57291;37.520;15.106;2022-10-19T08:21:54;101687.03;;;24.20;46.93
54556;BME280;57291;37.520;15.106;2022-10-19T08:24:21;101684.63;;;24.18;45.26
54556;BME280;57291;37.520;15.106;2022-10-19T08:26:48;101692.41;;;24.28;45.57
54556;BME280;57291;37.520;15.106;2022-10-19T08:29:18;101688.31;;;24.42;45.98
54556;BME280;57291;37.520;15.106;2022-10-19T08:31:48;101697.72;;;24.56;45.45
54556;BME280;57291;37.520;15.106;2022-10-19T08:34:15;101694.03;;;24.49;44.45
54556;BME280;57291;37.520;15.106;2022-10-19T08:36:42;101684.53;;;24.15;47.62
54556;BME280;57291;37.520;15.106;2022-10-19T08:39:10;101688.44;;;24.29;46.55
54556;BME280;57291;37.520;15.106;2022-10-19T08:42:00;101685.00;;;24.36;46.21
54556;BME280;57291;37.520;15.106;2022-10-19T08:50:33;101694.53;;;23.80;48.27
54556;BME280;57291;37.520;15.106;2022-10-19T09:04:27;101695.66;;;24.34;46.38
54556;BME280;57291;37.520;15.106;2022-10-19T09:12:56;101704.91;;;24.80;45.18
54556;BME280;57291;37.520;15.106;2022-10-19T09:15:37;101696.53;;;25.00;44.73
54556;BME280;57291;37.520;15.106;2022-10-19T09:18:18;101693.88;;;25.07;44.53
54556;BME280;57291;37.520;15.106;2022-10-19T09:21:15;101691.38;;;25.21;44.67
54556;BME280;57291;37.520;15.106;2022-10-19T09:24:07;101693.72;;;25.19;43.53
54556;BME280;57291;37.520;15.106;2022-10-19T09:26:51;101695.31;;;25.20;43.84
54556;BME280;57291;37.520;15.106;2022-10-19T09:29:41;101694.13;;;25.44;43.37
54556;BME280;57291;37.520;15.106;2022-10-19T09:32:36;101697.22;;;25.66;43.30
54556;BME280;57291;37.520;15.106;2022-10-19T09:37:43;101684.00;;;25.33;44.03
54556;BME280;57291;37.520;15.106;2022-10-19T09:40:23;101682.91;;;25.37;43.98
54556;BME280;57291;37.520;15.106;2022-10-19T09:42:51;101689.25;;;25.38;45.13
54556;BME280;57291;37.520;15.106;2022-10-19T09:47:57;101687.41;;;24.99;44.78
54556;BME280;57291;37.520;15.106;2022-10-19T09:50:42;101686.28;;;24.81;45.16
54556;BME280;57291;37.520;15.106;2022-10-19T09:53:20;101671.44;;;24.96;46.14
54556;BME280;57291;37.520;15.106;2022-10-19T09:56:02;101677.63;;;25.09;43.72
54556;BME280;57291;37.520;15.106;2022-10-19T09:58:29;101668.03;;;24.84;44.09
54556;BME280;57291;37.520;15.106;2022-10-19T10:01:00;101665.66;;;25.05;45.05
54556;BME280;57291;37.520;15.106;2022-10-19T10:03:31;101670.41;;;25.04;44.54
54556;BME280;57291;37.520;15.106;2022-10-19T10:06:05;101672.75;;;25.02;44.19
54556;BME280;57291;37.520;15.106;2022-10-19T10:08:36;101675.09;;;25.00;44.20
54556;BME280;57291;37.520;15.106;2022-10-19T10:11:11;101660.03;;;25.01;45.79
54556;BME280;57291;37.520;15.106;2022-10-19T10:13:43;101648.56;;;25.30;47.06
54556;BME280;57291;37.520;15.106;2022-10-19T10:16:15;101653.53;;;25.17;48.48
54556;BME280;57291;37.520;15.106;2022-10-19T10:21:25;101651.09;;;25.38;44.95
54556;BME280;57291;37.520;15.106;2022-10-19T10:26:45;101636.22;;;25.54;47.68
54556;BME280;57291;37.520;15.106;2022-10-19T10:29:24;101643.88;;;25.60;47.67
54556;BME280;57291;37.520;15.106;2022-10-19T10:31:58;101644.41;;;25.16;51.05
54556;BME280;57291;37.520;15.106;2022-10-19T10:37:43;101631.28;;;24.94;51.69
54556;BME280;57291;37.520;15.106;2022-10-19T10:40:29;101643.13;;;24.68;51.86
54556;BME280;57291;37.520;15.106;2022-10-19T10:43:03;101640.16;;;24.57;51.62
54556;BME280;57291;37.520;15.106;2022-10-19T10:45:36;101637.16;;;24.66;51.15
54556;BME280;57291;37.520;15.106;2022-10-19T10:48:16;101613.34;;;24.65;51.21
54556;BME280;57291;37.520;15.106;2022-10-19T10:50:47;101626.66;;;24.55;52.89
54556;BME280;57291;37.520;15.106;2022-10-19T10:53:37;101622.81;;;24.64;53.99
54556;BME280;57291;37.520;15.106;2022-10-19T10:56:22;101615.16;;;24.57;52.55
54556;BME280;57291;37.520;15.106;2022-10-19T10:59:14;101610.41;;;24.57;52.53
54556;BME280;57291;37.520;15.106;2022-10-19T11:04:51;101598.31;;;24.27;54.46
54556;BME280;57291;37.520;15.106;2022-10-19T11:07:21;101598.50;;;24.38;54.78
54556;BME280;57291;37.520;15.106;2022-10-19T11:10:02;101586.75;;;24.44;53.94
54556;BME280;57291;37.520;15.106;2022-10-19T11:12:43;101584.47;;;24.50;53.76
54556;BME280;57291;37.520;15.106;2022-10-19T11:15:19;101572.56;;;24.49;55.08
54556;BME280;57291;37.520;15.106;2022-10-19T11:20:28;101559.84;;;24.48;54.73
54556;BME280;57291;37.520;15.106;2022-10-19T11:23:11;101571.09;;;24.55;54.09
54556;BME280;57291;37.520;15.106;2022-10-19T11:28:25;101562.13;;;24.66;52.71
54556;BME280;57291;37.520;15.106;2022-10-19T11:31:16;101561.09;;;24.77;51.90
54556;BME280;57291;37.520;15.106;2022-10-19T11:47:31;101525.97;;;24.20;54.03
54556;BME280;57291;37.520;15.106;2022-10-19T11:55:36;101521.91;;;24.37;53.98
54556;BME280;57291;37.520;15.106;2022-10-19T11:58:33;101519.97;;;24.18;53.29
54556;BME280;57291;37.520;15.106;2022-10-19T12:03:46;101515.88;;;24.11;54.11
54556;BME280;57291;37.520;15.106;2022-10-19T12:06:24;101510.84;;;24.17;54.37
54556;BME280;57291;37.520;15.106;2022-10-19T12:14:17;101514.06;;;24.19;54.67
54556;BME280;57291;37.520;15.106;2022-10-19T12:16:54;101504.38;;;24.09;53.87
54556;BME280;57291;37.520;15.106;2022-10-19T12:19:38;101504.38;;;24.09;55.39
54556;BME280;57291;37.520;15.106;2022-10-19T12:22:13;101505.41;;;24.24;52.52
54556;BME280;57291;37.520;15.106;2022-10-19T12:24:41;101491.63;;;24.08;54.88
54556;BME280;57291;37.520;15.106;2022-10-19T12:27:15;101505.63;;;23.93;54.66
54556;BME280;57291;37.520;15.106;2022-10-19T12:29:45;101493.00;;;24.18;55.19
54556;BME280;57291;37.520;15.106;2022-10-19T12:32:15;101493.69;;;24.34;53.71
54556;BME280;57291;37.520;15.106;2022-10-19T12:35:06;101489.25;;;24.30;54.72
54556;BME280;57291;37.520;15.106;2022-10-19T12:37:51;101485.28;;;24.08;55.58
54556;BME280;57291;37.520;15.106;2022-10-19T12:40:27;101499.97;;;24.08;56.72
54556;BME280;57291;37.520;15.106;2022-10-19T12:51:58;101485.88;;;23.98;55.62
54556;BME280;57291;37.520;15.106;2022-10-19T12:54:27;101477.00;;;23.88;56.59
54556;BME280;57291;37.520;15.106;2022-10-19T12:56:57;101483.59;;;23.80;57.73
54556;BME280;57291;37.520;15.106;2022-10-19T12:59:33;101485.25;;;23.85;57.71
54556;BME280;57291;37.520;15.106;2022-10-19T13:02:04;101481.59;;;23.81;58.26
54556;BME280;57291;37.520;15.106;2022-10-19T13:04:34;101477.31;;;23.83;57.53
54556;BME280;57291;37.520;15.106;2022-10-19T13:07:05;101482.41;;;23.81;58.89
54556;BME280;57291;37.520;15.106;2022-10-19T13:09:41;101470.84;;;23.99;57.73
54556;BME280;57291;37.520;15.106;2022-10-19T13:15:02;101476.59;;;24.09;57.89
54556;BME280;57291;37.520;15.106;2022-10-19T13:25:26;101479.09;;;23.95;58.96
54556;BME280;57291;37.520;15.106;2022-10-19T13:46:13;101470.56;;;23.84;62.82
54556;BME280;57291;37.520;15.106;2022-10-19T13:59:58;101464.81;;;23.35;65.66
54556;BME280;57291;37.520;15.106;2022-10-19T14:11:31;101467.78;;;23.26;65.87
54556;BME280;57291;37.520;15.106;2022-10-19T14:16:57;101474.56;;;23.09;66.03
54556;BME280;57291;37.520;15.106;2022-10-19T14:19:39;101465.03;;;23.07;66.10
54556;BME280;57291;37.520;15.106;2022-10-19T14:25:26;101455.38;;;22.85;66.65
54556;BME280;57291;37.520;15.106;2022-10-19T14:28:05;101456.19;;;22.85;67.59
54556;BME280;57291;37.520;15.106;2022-10-19T14:31:03;101460.94;;;22.85;66.94
54556;BME280;57291;37.520;15.106;2022-10-19T14:33:55;101459.59;;;22.79;66.88
54556;BME280;57291;37.520;15.106;2022-10-19T14:36:35;101465.13;;;22.79;67.40
54556;BME280;57291;37.520;15.106;2022-10-19T14:39:28;101461.28;;;22.83;67.84
54556;BME280;57291;37.520;15.106;2022-10-19T14:42:04;101455.31;;;22.81;67.90
54556;BME280;57291;37.520;15.106;2022-10-19T14:44:42;101454.06;;;22.79;68.51
54556;BME280;57291;37.520;15.106;2022-10-19T14:47:24;101453.59;;;22.77;67.75
54556;BME280;57291;37.520;15.106;2022-10-19T14:49:57;101453.09;;;22.71;67.92
54556;BME280;57291;37.520;15.106;2022-10-19T14:52:35;101455.41;;;22.69;68.29
54556;BME280;57291;37.520;15.106;2022-10-19T14:55:16;101464.19;;;22.71;68.69
54556;BME280;57291;37.520;15.106;2022-10-19T14:58:11;101463.81;;;22.73;68.78
54556;BME280;57291;37.520;15.106;2022-10-19T15:00:46;101459.88;;;22.74;68.35
54556;BME280;57291;37.520;15.106;2022-10-19T15:03:28;101466.50;;;22.69;68.65
54556;BME280;57291;37.520;15.106;2022-10-19T15:06:03;101448.13;;;22.61;68.64
54556;BME280;57291;37.520;15.106;2022-10-19T15:08:55;101453.53;;;22.57;68.96
54556;BME280;57291;37.520;15.106;2022-10-19T15:14:20;101458.38;;;22.60;69.49
54556;BME280;57291;37.520;15.106;2022-10-19T15:16:59;101457.56;;;22.60;69.44
54556;BME280;57291;37.520;15.106;2022-10-19T15:19:39;101456.31;;;22.57;69.99
54556;BME280;57291;37.520;15.106;2022-10-19T15:22:14;101460.72;;;22.58;70.29
54556;BME280;57291;37.520;15.106;2022-10-19T15:27:36;101463.91;;;22.60;70.85
54556;BME280;57291;37.520;15.106;2022-10-19T15:32:53;101460.63;;;22.55;71.36
54556;BME280;57291;37.520;15.106;2022-10-19T15:35:36;101454.91;;;22.47;70.90
54556;BME280;57291;37.520;15.106;2022-10-19T15:38:14;101448.84;;;22.42;71.45
54556;BME280;57291;37.520;15.106;2022-10-19T15:40:55;101448.75;;;22.38;71.12
54556;BME280;57291;37.520;15.106;2022-10-19T15:43:35;101460.53;;;22.35;71.86
54556;BME280;57291;37.520;15.106;2022-10-19T15:51:46;101452.78;;;22.25;72.46
54556;BME280;57291;37.520;15.106;2022-10-19T15:54:24;101450.81;;;22.26;72.24
54556;BME280;57291;37.520;15.106;2022-10-19T15:56:55;101446.78;;;22.23;72.18
54556;BME280;57291;37.520;15.106;2022-10-19T15:59:27;101447.16;;;22.21;72.29
54556;BME280;57291;37.520;15.106;2022-10-19T16:02:11;101453.75;;;22.17;72.76